sensor_id;sensor_type;location;lat;lon;timestamp;pressure;altitude;pressure_sealevel;temperature;humidity
11888;BME280;6003;42.756;23.130;2023-07-20T00:01:32;157724.38;;;20.56;80.43
11888;BME280;6003;42.756;23.130;2023-07-20T00:04:00;157707.03;;;20.49;81.36
11888;BME280;6003;42.756;23.130;2023-07-20T00:06:27;157679.06;;;20.38;81.01
11888;BME280;6003;42.756;23.130;2023-07-20T00:08:54;157677.75;;;20.38;81.72
11888;BME280;6003;42.756;23.130;2023-07-20T00:11:21;157659.06;;;20.31;82.37
11888;BME280;6003;42.756;23.130;2023-07-20T00:13:48;157613.81;;;20.13;83.03
11888;BME280;6003;42.756;23.130;2023-07-20T00:16:15;157615.13;;;20.14;82.31
11888;BME280;6003;42.756;23.130;2023-07-20T00:18:42;157619.16;;;20.15;82.05
11888;BME280;6003;42.756;23.130;2023-07-20T00:21:10;157629.78;;;20.19;82.21
11888;BME280;6003;42.756;23.130;2023-07-20T00:23:37;157643.09;;;20.24;82.01
11888;BME280;6003;42.756;23.130;2023-07-20T00:26:05;157645.78;;;20.25;82.87
11888;BME280;6003;42.756;23.130;2023-07-20T00:28:31;157633.78;;;20.21;81.78
11888;BME280;6003;42.756;23.130;2023-07-20T00:30:59;157616.50;;;20.14;81.63
11888;BME280;6003;42.756;23.130;2023-07-20T00:33:26;157617.81;;;20.15;82.76
11888;BME280;6003;42.756;23.130;2023-07-20T00:35:53;157587.22;;;20.03;82.85
11888;BME280;6003;42.756;23.130;2023-07-20T00:38:21;157565.91;;;19.95;83.37
11888;BME280;6003;42.756;23.130;2023-07-20T00:40:48;157555.22;;;19.91;83.69
11888;BME280;6003;42.756;23.130;2023-07-20T00:43:15;157561.91;;;19.93;84.01
11888;BME280;6003;42.756;23.130;2023-07-20T00:45:42;157552.59;;;19.90;85.10
11888;BME280;6003;42.756;23.130;2023-07-20T00:48:10;157520.66;;;19.77;85.31
11888;BME280;6003;42.756;23.130;2023-07-20T00:50:38;157494.03;;;19.67;85.98
11888;BME280;6003;42.756;23.130;2023-07-20T00:53:07;157474.03;;;19.59;86.03
11888;BME280;6003;42.756;23.130;2023-07-20T00:55:35;157472.69;;;19.59;86.03
11888;BME280;6003;42.756;23.130;2023-07-20T00:58:02;157467.38;;;19.57;86.19
11888;BME280;6003;42.756;23.130;2023-07-20T01:00:30;157447.41;;;19.49;86.28
11888;BME280;6003;42.756;23.130;2023-07-20T01:02:57;157439.44;;;19.46;86.76
11888;BME280;6003;42.756;23.130;2023-07-20T01:05:30;157446.09;;;19.49;87.44
11888;BME280;6003;42.756;23.130;2023-07-20T01:08:07;157439.44;;;19.46;87.28
11888;BME280;6003;42.756;23.130;2023-07-20T01:10:40;157432.78;;;19.44;87.35
11888;BME280;6003;42.756;23.130;2023-07-20T01:13:09;157395.50;;;19.29;88.14
11888;BME280;6003;42.756;23.130;2023-07-20T01:15:36;157376.91;;;19.22;88.53
11888;BME280;6003;42.756;23.130;2023-07-20T01:18:03;157371.56;;;19.20;89.10
11888;BME280;6003;42.756;23.130;2023-07-20T01:20:32;157375.53;;;19.22;89.24
11888;BME280;6003;42.756;23.130;2023-07-20T01:23:19;157376.91;;;19.22;88.68
11888;BME280;6003;42.756;23.130;2023-07-20T01:26:02;157354.31;;;19.13;89.56
11888;BME280;6003;42.756;23.130;2023-07-20T01:31:47;157363.59;;;19.17;89.67
11888;BME280;6003;42.756;23.130;2023-07-20T01:34:17;157358.25;;;19.15;90.37
11888;BME280;6003;42.756;23.130;2023-07-20T01:36:46;157350.28;;;19.12;90.01
11888;BME280;6003;42.756;23.130;2023-07-20T01:39:14;157342.31;;;19.09;90.36
11888;BME280;6003;42.756;23.130;2023-07-20T01:41:41;157331.69;;;19.05;90.02
11888;BME280;6003;42.756;23.130;2023-07-20T01:44:08;157299.72;;;18.92;90.51
11888;BME280;6003;42.756;23.130;2023-07-20T01:46:35;157281.13;;;18.85;91.13
11888;BME280;6003;42.756;23.130;2023-07-20T01:49:03;157258.53;;;18.77;91.35
11888;BME280;6003;42.756;23.130;2023-07-20T01:51:30;157249.19;;;18.73;92.24
11888;BME280;6003;42.756;23.130;2023-07-20T01:53:57;157250.56;;;18.74;91.94
11888;BME280;6003;42.756;23.130;2023-07-20T01:56:25;157209.25;;;18.58;93.25
11888;BME280;6003;42.756;23.130;2023-07-20T01:58:52;157219.91;;;18.62;92.96
11888;BME280;6003;42.756;23.130;2023-07-20T02:01:18;157218.56;;;18.61;92.39
11888;BME280;6003;42.756;23.130;2023-07-20T02:03:45;157227.91;;;18.65;92.63
11888;BME280;6003;42.756;23.130;2023-07-20T02:06:13;157214.59;;;18.60;92.60
11888;BME280;6003;42.756;23.130;2023-07-20T02:08:40;157217.22;;;18.61;92.88
11888;BME280;6003;42.756;23.130;2023-07-20T02:11:07;157207.94;;;18.57;93.38
11888;BME280;6003;42.756;23.130;2023-07-20T02:13:35;157187.97;;;18.49;93.75
11888;BME280;6003;42.756;23.130;2023-07-20T02:16:02;157194.63;;;18.52;93.30
11888;BME280;6003;42.756;23.130;2023-07-20T02:18:29;157172.03;;;18.43;93.28
11888;BME280;6003;42.756;23.130;2023-07-20T02:20:55;157169.38;;;18.42;93.54
11888;BME280;6003;42.756;23.130;2023-07-20T02:23:24;157169.38;;;18.42;93.11
11888;BME280;6003;42.756;23.130;2023-07-20T02:25:51;157172.03;;;18.43;93.14
11888;BME280;6003;42.756;23.130;2023-07-20T02:28:18;157149.41;;;18.35;93.92
11888;BME280;6003;42.756;23.130;2023-07-20T02:30:45;157148.09;;;18.34;94.71
11888;BME280;6003;42.756;23.130;2023-07-20T02:33:11;157150.75;;;18.35;94.02
11888;BME280;6003;42.756;23.130;2023-07-20T02:35:40;157153.44;;;18.36;94.26
11888;BME280;6003;42.756;23.130;2023-07-20T02:38:07;157149.41;;;18.35;94.54
11888;BME280;6003;42.756;23.130;2023-07-20T02:40:35;157145.47;;;18.33;94.83
11888;BME280;6003;42.756;23.130;2023-07-20T02:43:02;157138.81;;;18.31;94.90
11888;BME280;6003;42.756;23.130;2023-07-20T02:45:29;157097.56;;;18.15;95.62
11888;BME280;6003;42.756;23.130;2023-07-20T02:47:56;157102.91;;;18.17;95.02
11888;BME280;6003;42.756;23.130;2023-07-20T02:50:23;157105.53;;;18.18;95.12
11888;BME280;6003;42.756;23.130;2023-07-20T02:52:50;157110.88;;;18.20;95.58
11888;BME280;6003;42.756;23.130;2023-07-20T02:55:16;157113.50;;;18.21;95.37
11888;BME280;6003;42.756;23.130;2023-07-20T02:57:46;157102.91;;;18.17;95.79
11888;BME280;6003;42.756;23.130;2023-07-20T03:00:13;157105.53;;;18.18;96.37
11888;BME280;6003;42.756;23.130;2023-07-20T03:02:42;157108.22;;;18.19;95.65
11888;BME280;6003;42.756;23.130;2023-07-20T03:05:09;157118.84;;;18.23;95.27
11888;BME280;6003;42.756;23.130;2023-07-20T03:07:36;157121.50;;;18.24;96.26
11888;BME280;6003;42.756;23.130;2023-07-20T03:10:04;157122.84;;;18.24;96.48
11888;BME280;6003;42.756;23.130;2023-07-20T03:12:32;157117.53;;;18.22;96.40
11888;BME280;6003;42.756;23.130;2023-07-20T03:15:01;157124.19;;;18.25;96.43
11888;BME280;6003;42.756;23.130;2023-07-20T03:17:28;157134.78;;;18.29;96.19
11888;BME280;6003;42.756;23.130;2023-07-20T03:19:55;157150.75;;;18.35;96.14
11888;BME280;6003;42.756;23.130;2023-07-20T03:22:22;157164.03;;;18.40;95.64
11888;BME280;6003;42.756;23.130;2023-07-20T03:24:50;157170.69;;;18.43;96.03
11888;BME280;6003;42.756;23.130;2023-07-20T03:27:17;157180.00;;;18.46;95.95
11888;BME280;6003;42.756;23.130;2023-07-20T03:29:44;157197.31;;;18.53;95.74
11888;BME280;6003;42.756;23.130;2023-07-20T03:32:13;157214.59;;;18.60;95.71
11888;BME280;6003;42.756;23.130;2023-07-20T03:34:40;157230.53;;;18.66;95.50
11888;BME280;6003;42.756;23.130;2023-07-20T03:37:07;157262.50;;;18.78;95.25
11888;BME280;6003;42.756;23.130;2023-07-20T03:39:34;157299.72;;;18.92;94.92
11888;BME280;6003;42.756;23.130;2023-07-20T03:42:01;157360.91;;;19.16;94.79
11888;BME280;6003;42.756;23.130;2023-07-20T03:44:28;157424.78;;;19.41;94.70
11888;BME280;6003;42.756;23.130;2023-07-20T03:46:54;157472.69;;;19.59;93.23
11888;BME280;6003;42.756;23.130;2023-07-20T03:49:22;157533.97;;;19.82;91.52
11888;BME280;6003;42.756;23.130;2023-07-20T03:51:49;157565.91;;;19.95;89.41
11888;BME280;6003;42.756;23.130;2023-07-20T03:54:16;157597.84;;;20.07;88.23
11888;BME280;6003;42.756;23.130;2023-07-20T03:56:44;157633.78;;;20.21;87.59
11888;BME280;6003;42.756;23.130;2023-07-20T03:59:11;157651.09;;;20.27;87.26
11888;BME280;6003;42.756;23.130;2023-07-20T04:01:38;157667.06;;;20.34;86.07
11888;BME280;6003;42.756;23.130;2023-07-20T04:04:07;157704.34;;;20.48;85.68
11888;BME280;6003;42.756;23.130;2023-07-20T04:06:35;157741.66;;;20.62;86.01
11888;BME280;6003;42.756;23.130;2023-07-20T04:09:03;157781.66;;;20.78;85.86
11888;BME280;6003;42.756;23.130;2023-07-20T04:11:31;157826.94;;;20.95;85.26
11888;BME280;6003;42.756;23.130;2023-07-20T04:13:58;157880.22;;;21.15;84.69
11888;BME280;6003;42.756;23.130;2023-07-20T04:16:25;157926.81;;;21.33;83.58
11888;BME280;6003;42.756;23.130;2023-07-20T04:18:54;157970.84;;;21.50;82.58
11888;BME280;6003;42.756;23.130;2023-07-20T04:21:21;158124.09;;;22.09;80.91
11888;BME280;6003;42.756;23.130;2023-07-20T04:23:50;158338.81;;;22.91;77.77
11888;BME280;6003;42.756;23.130;2023-07-20T04:26:17;158555.03;;;23.74;76.08
11888;BME280;6003;42.756;23.130;2023-07-20T04:28:44;158768.63;;;24.56;71.83
11888;BME280;6003;42.756;23.130;2023-07-20T04:31:11;158977.03;;;25.36;68.46
11888;BME280;6003;42.756;23.130;2023-07-20T04:33:38;159138.72;;;25.98;65.55
11888;BME280;6003;42.756;23.130;2023-07-20T04:36:06;159283.16;;;26.53;64.59
11888;BME280;6003;42.756;23.130;2023-07-20T04:38:33;159435.56;;;27.11;62.78
11888;BME280;6003;42.756;23.130;2023-07-20T04:41:01;159576.06;;;27.65;60.64
11888;BME280;6003;42.756;23.130;2023-07-20T04:43:29;159689.84;;;28.08;58.69
11888;BME280;6003;42.756;23.130;2023-07-20T04:45:56;159811.66;;;28.55;57.82
11888;BME280;6003;42.756;23.130;2023-07-20T04:48:23;159878.59;;;28.81;56.55
11888;BME280;6003;42.756;23.130;2023-07-20T04:50:50;159881.25;;;28.82;56.53
11888;BME280;6003;42.756;23.130;2023-07-20T04:53:17;160003.13;;;29.28;54.96
11888;BME280;6003;42.756;23.130;2023-07-20T04:55:48;160119.72;;;29.73;53.51
11888;BME280;6003;42.756;23.130;2023-07-20T04:58:18;160157.22;;;29.87;53.37
11888;BME280;6003;42.756;23.130;2023-07-20T05:00:46;160295.22;;;30.40;52.35
11888;BME280;6003;42.756;23.130;2023-07-20T05:03:12;160407.84;;;30.83;50.52
11888;BME280;6003;42.756;23.130;2023-07-20T05:05:40;160419.88;;;30.87;50.26
11888;BME280;6003;42.756;23.130;2023-07-20T05:08:07;160555.31;;;31.39;49.77
11888;BME280;6003;42.756;23.130;2023-07-20T05:10:33;160523.13;;;31.27;50.56
11888;BME280;6003;42.756;23.130;2023-07-20T05:13:00;160478.88;;;31.10;49.72
11888;BME280;6003;42.756;23.130;2023-07-20T05:15:29;160380.97;;;30.72;52.50
11888;BME280;6003;42.756;23.130;2023-07-20T05:17:57;160602.28;;;31.57;49.89
11888;BME280;6003;42.756;23.130;2023-07-20T05:20:24;160688.09;;;31.89;48.38
11888;BME280;6003;42.756;23.130;2023-07-20T05:22:50;160786.06;;;32.27;46.84
11888;BME280;6003;42.756;23.130;2023-07-20T05:25:18;160717.66;;;32.01;47.24
11888;BME280;6003;42.756;23.130;2023-07-20T05:27:48;160599.56;;;31.56;46.69
11888;BME280;6003;42.756;23.130;2023-07-20T05:30:16;160515.06;;;31.23;50.11
11888;BME280;6003;42.756;23.130;2023-07-20T05:32:44;160454.75;;;31.00;50.90
11888;BME280;6003;42.756;23.130;2023-07-20T05:35:16;160422.59;;;30.88;50.08
11888;BME280;6003;42.756;23.130;2023-07-20T05:37:43;160252.34;;;30.23;50.77
11888;BME280;6003;42.756;23.130;2023-07-20T05:40:11;160185.31;;;29.98;52.05
11888;BME280;6003;42.756;23.130;2023-07-20T05:42:38;160059.38;;;29.50;52.76
11888;BME280;6003;42.756;23.130;2023-07-20T05:45:06;160046.00;;;29.44;53.70
11888;BME280;6003;42.756;23.130;2023-07-20T05:47:34;159909.38;;;28.92;53.89
11888;BME280;6003;42.756;23.130;2023-07-20T05:50:02;160011.16;;;29.31;55.35
11888;BME280;6003;42.756;23.130;2023-07-20T05:52:29;160040.63;;;29.42;53.92
11888;BME280;6003;42.756;23.130;2023-07-20T05:54:56;160072.75;;;29.55;53.13
11888;BME280;6003;42.756;23.130;2023-07-20T05:57:23;160049.97;;;29.46;51.53
11888;BME280;6003;42.756;23.130;2023-07-20T05:59:50;159952.22;;;29.09;52.85
11888;BME280;6003;42.756;23.130;2023-07-20T06:02:17;160114.34;;;29.71;53.41
11888;BME280;6003;42.756;23.130;2023-07-20T06:04:44;160159.88;;;29.88;53.03
11888;BME280;6003;42.756;23.130;2023-07-20T06:07:13;160111.69;;;29.70;54.57
11888;BME280;6003;42.756;23.130;2023-07-20T06:09:39;159917.41;;;28.95;54.67
11888;BME280;6003;42.756;23.130;2023-07-20T06:12:07;159900.00;;;28.89;53.88
11888;BME280;6003;42.756;23.130;2023-07-20T06:14:34;160003.13;;;29.28;55.43
11888;BME280;6003;42.756;23.130;2023-07-20T06:17:02;159851.78;;;28.70;56.77
11888;BME280;6003;42.756;23.130;2023-07-20T06:19:28;159913.34;;;28.94;57.40
11888;BME280;6003;42.756;23.130;2023-07-20T06:21:55;160163.91;;;29.89;54.21
11888;BME280;6003;42.756;23.130;2023-07-20T06:24:23;160445.38;;;30.97;51.31
11888;BME280;6003;42.756;23.130;2023-07-20T06:26:50;160583.50;;;31.50;50.72
11888;BME280;6003;42.756;23.130;2023-07-20T06:29:17;160617.03;;;31.62;49.42
11888;BME280;6003;42.756;23.130;2023-07-20T06:31:44;160484.25;;;31.12;49.27
11888;BME280;6003;42.756;23.130;2023-07-20T06:34:11;160568.75;;;31.44;51.79
11888;BME280;6003;42.756;23.130;2023-07-20T06:36:38;160716.31;;;32.00;48.87
11888;BME280;6003;42.756;23.130;2023-07-20T06:39:05;160838.41;;;32.47;49.72
11888;BME280;6003;42.756;23.130;2023-07-20T06:41:33;160909.50;;;32.74;48.38
11888;BME280;6003;42.756;23.130;2023-07-20T06:44:00;160792.75;;;32.29;49.13
11888;BME280;6003;42.756;23.130;2023-07-20T06:46:27;160782.00;;;32.25;49.38
11888;BME280;6003;42.756;23.130;2023-07-20T06:48:54;160881.38;;;32.63;50.74
11888;BME280;6003;42.756;23.130;2023-07-20T06:51:21;160655.91;;;31.77;48.76
11888;BME280;6003;42.756;23.130;2023-07-20T06:53:48;160494.94;;;31.16;49.27
11888;BME280;6003;42.756;23.130;2023-07-20T06:56:15;160354.22;;;30.62;50.61
11888;BME280;6003;42.756;23.130;2023-07-20T06:58:43;160217.50;;;30.10;51.22
11888;BME280;6003;42.756;23.130;2023-07-20T07:01:10;160119.72;;;29.73;54.82
11888;BME280;6003;42.756;23.130;2023-07-20T07:03:36;160095.56;;;29.63;53.80
11888;BME280;6003;42.756;23.130;2023-07-20T07:06:03;160121.03;;;29.73;55.59
11888;BME280;6003;42.756;23.130;2023-07-20T07:08:30;160088.84;;;29.61;54.51
11888;BME280;6003;42.756;23.130;2023-07-20T07:10:57;160134.44;;;29.78;54.78
11888;BME280;6003;42.756;23.130;2023-07-20T07:13:24;160117.00;;;29.72;53.25
11888;BME280;6003;42.756;23.130;2023-07-20T07:15:52;160206.75;;;30.06;54.88
11888;BME280;6003;42.756;23.130;2023-07-20T07:18:19;160299.22;;;30.41;53.29
11888;BME280;6003;42.756;23.130;2023-07-20T07:20:52;160242.94;;;30.20;53.19
11888;BME280;6003;42.756;23.130;2023-07-20T07:23:19;160264.44;;;30.28;54.27
11888;BME280;6003;42.756;23.130;2023-07-20T07:25:46;160339.47;;;30.56;53.54
11888;BME280;6003;42.756;23.130;2023-07-20T07:28:13;160261.75;;;30.27;52.86
11888;BME280;6003;42.756;23.130;2023-07-20T07:30:40;160309.97;;;30.45;55.29
11888;BME280;6003;42.756;23.130;2023-07-20T07:33:09;160347.50;;;30.60;52.89
11888;BME280;6003;42.756;23.130;2023-07-20T07:35:36;160283.16;;;30.35;55.34
11888;BME280;6003;42.756;23.130;2023-07-20T07:38:03;160257.72;;;30.25;55.90
11888;BME280;6003;42.756;23.130;2023-07-20T07:40:30;160234.91;;;30.17;55.78
11888;BME280;6003;42.756;23.130;2023-07-20T07:42:57;160113.00;;;29.70;57.98
11888;BME280;6003;42.756;23.130;2023-07-20T07:45:24;159964.28;;;29.13;57.27
11888;BME280;6003;42.756;23.130;2023-07-20T07:47:51;160019.19;;;29.34;58.77
11888;BME280;6003;42.756;23.130;2023-07-20T07:50:19;159983.06;;;29.20;57.70
11888;BME280;6003;42.756;23.130;2023-07-20T07:52:46;159894.66;;;28.87;58.15
11888;BME280;6003;42.756;23.130;2023-07-20T07:55:13;159827.72;;;28.61;56.23
11888;BME280;6003;42.756;23.130;2023-07-20T07:57:42;159640.31;;;27.89;56.99
11888;BME280;6003;42.756;23.130;2023-07-20T08:00:09;159589.41;;;27.70;57.67
11888;BME280;6003;42.756;23.130;2023-07-20T08:02:40;159551.94;;;27.56;58.23
11888;BME280;6003;42.756;23.130;2023-07-20T08:05:07;159461.00;;;27.21;58.28
11888;BME280;6003;42.756;23.130;2023-07-20T08:07:35;159487.78;;;27.31;58.91
11888;BME280;6003;42.756;23.130;2023-07-20T08:10:03;159438.22;;;27.12;61.31
11888;BME280;6003;42.756;23.130;2023-07-20T08:12:30;159515.88;;;27.42;58.36
11888;BME280;6003;42.756;23.130;2023-07-20T08:14:57;159578.72;;;27.66;57.70
11888;BME280;6003;42.756;23.130;2023-07-20T08:17:24;159533.25;;;27.49;57.06
11888;BME280;6003;42.756;23.130;2023-07-20T08:19:51;159535.91;;;27.50;57.70
11888;BME280;6003;42.756;23.130;2023-07-20T08:22:18;159493.09;;;27.33;56.96
11888;BME280;6003;42.756;23.130;2023-07-20T08:24:47;159490.44;;;27.32;57.76
11888;BME280;6003;42.756;23.130;2023-07-20T08:27:14;159545.25;;;27.53;58.94
11888;BME280;6003;42.756;23.130;2023-07-20T08:29:40;159582.72;;;27.67;56.93
11888;BME280;6003;42.756;23.130;2023-07-20T08:32:08;159656.34;;;27.96;54.78
11888;BME280;6003;42.756;23.130;2023-07-20T08:34:35;159554.66;;;27.57;55.31
11888;BME280;6003;42.756;23.130;2023-07-20T08:37:02;159578.72;;;27.66;57.69
11888;BME280;6003;42.756;23.130;2023-07-20T08:39:28;159554.66;;;27.57;56.19
11888;BME280;6003;42.756;23.130;2023-07-20T08:41:59;159647.00;;;27.92;57.65
11888;BME280;6003;42.756;23.130;2023-07-20T08:44:29;159739.31;;;28.27;54.45
11888;BME280;6003;42.756;23.130;2023-07-20T08:47:00;159768.75;;;28.39;54.24
11888;BME280;6003;42.756;23.130;2023-07-20T08:49:27;159808.94;;;28.54;54.84
11888;BME280;6003;42.756;23.130;2023-07-20T08:51:54;159760.72;;;28.35;52.13
11888;BME280;6003;42.756;23.130;2023-07-20T08:54:21;159767.44;;;28.38;52.02
11888;BME280;6003;42.756;23.130;2023-07-20T08:56:48;159681.81;;;28.05;54.92
11888;BME280;6003;42.756;23.130;2023-07-20T08:59:17;159712.59;;;28.17;53.50
11888;BME280;6003;42.756;23.130;2023-07-20T09:01:44;159843.75;;;28.67;55.20
11888;BME280;6003;42.756;23.130;2023-07-20T09:04:12;159934.78;;;29.02;54.84
11888;BME280;6003;42.756;23.130;2023-07-20T09:06:39;159992.44;;;29.24;52.62
11888;BME280;6003;42.756;23.130;2023-07-20T09:09:06;160090.19;;;29.61;50.66
11888;BME280;6003;42.756;23.130;2023-07-20T09:11:33;160159.88;;;29.88;49.15
11888;BME280;6003;42.756;23.130;2023-07-20T09:14:04;160170.56;;;29.92;50.60
11888;BME280;6003;42.756;23.130;2023-07-20T09:16:32;160107.63;;;29.68;50.46
11888;BME280;6003;42.756;23.130;2023-07-20T09:18:59;160079.44;;;29.57;51.71
11888;BME280;6003;42.756;23.130;2023-07-20T09:21:29;160135.78;;;29.79;52.33
11888;BME280;6003;42.756;23.130;2023-07-20T09:23:56;160221.47;;;30.11;50.86
11888;BME280;6003;42.756;23.130;2023-07-20T09:26:23;160283.16;;;30.35;50.23
11888;BME280;6003;42.756;23.130;2023-07-20T09:28:52;160375.66;;;30.70;49.80
11888;BME280;6003;42.756;23.130;2023-07-20T09:31:20;160411.84;;;30.84;47.38
11888;BME280;6003;42.756;23.130;2023-07-20T09:33:52;160470.84;;;31.07;48.58
11888;BME280;6003;42.756;23.130;2023-07-20T09:36:19;160427.97;;;30.90;45.30
11888;BME280;6003;42.756;23.130;2023-07-20T09:38:46;160422.59;;;30.88;46.26
11888;BME280;6003;42.756;23.130;2023-07-20T09:41:14;160501.66;;;31.18;45.17
11888;BME280;6003;42.756;23.130;2023-07-20T09:43:42;160532.50;;;31.30;45.13
11888;BME280;6003;42.756;23.130;2023-07-20T09:46:09;160564.75;;;31.42;45.34
11888;BME280;6003;42.756;23.130;2023-07-20T09:48:36;160579.50;;;31.48;46.54
11888;BME280;6003;42.756;23.130;2023-07-20T09:51:05;160602.28;;;31.57;45.00
11888;BME280;6003;42.756;23.130;2023-07-20T09:53:33;160586.22;;;31.51;44.65
11888;BME280;6003;42.756;23.130;2023-07-20T09:56:02;160501.66;;;31.18;45.02
11888;BME280;6003;42.756;23.130;2023-07-20T09:58:30;160472.16;;;31.07;44.42
11888;BME280;6003;42.756;23.130;2023-07-20T10:01:00;160505.72;;;31.20;44.09
11888;BME280;6003;42.756;23.130;2023-07-20T10:03:29;160584.81;;;31.50;44.28
11888;BME280;6003;42.756;23.130;2023-07-20T10:05:57;160634.47;;;31.69;45.97
11888;BME280;6003;42.756;23.130;2023-07-20T10:08:29;160623.69;;;31.65;44.72
11888;BME280;6003;42.756;23.130;2023-07-20T10:10:57;160642.50;;;31.72;43.90
11888;BME280;6003;42.756;23.130;2023-07-20T10:13:26;160611.66;;;31.60;43.50
11888;BME280;6003;42.756;23.130;2023-07-20T10:15:56;160537.88;;;31.32;42.72
11888;BME280;6003;42.756;23.130;2023-07-20T10:18:28;160461.47;;;31.03;44.60
11888;BME280;6003;42.756;23.130;2023-07-20T10:20:57;160436.00;;;30.93;48.57
11888;BME280;6003;42.756;23.130;2023-07-20T10:23:28;160358.19;;;30.64;52.16
11888;BME280;6003;42.756;23.130;2023-07-20T10:25:56;160309.97;;;30.45;56.51
11888;BME280;6003;42.756;23.130;2023-07-20T10:28:24;160269.81;;;30.30;60.49
11888;BME280;6003;42.756;23.130;2023-07-20T10:30:51;160202.75;;;30.04;60.39
11888;BME280;6003;42.756;23.130;2023-07-20T10:33:18;160186.69;;;29.98;59.65
11888;BME280;6003;42.756;23.130;2023-07-20T10:35:53;160165.25;;;29.90;58.48
11888;BME280;6003;42.756;23.130;2023-07-20T10:38:20;160170.56;;;29.92;58.12
11888;BME280;6003;42.756;23.130;2023-07-20T10:41:15;160240.25;;;30.19;59.20
11888;BME280;6003;42.756;23.130;2023-07-20T10:43:43;160327.38;;;30.52;57.44
11888;BME280;6003;42.756;23.130;2023-07-20T10:46:11;160344.84;;;30.58;53.84
11888;BME280;6003;42.756;23.130;2023-07-20T10:48:58;160385.03;;;30.74;54.50
11888;BME280;6003;42.756;23.130;2023-07-20T10:51:26;160460.13;;;31.02;55.00
11888;BME280;6003;42.756;23.130;2023-07-20T10:53:54;160503.03;;;31.19;54.02
11888;BME280;6003;42.756;23.130;2023-07-20T10:56:26;160588.88;;;31.52;53.26
11888;BME280;6003;42.756;23.130;2023-07-20T10:58:58;160643.84;;;31.73;50.23
11888;BME280;6003;42.756;23.130;2023-07-20T11:01:28;160700.22;;;31.94;49.65
11888;BME280;6003;42.756;23.130;2023-07-20T11:03:58;160720.31;;;32.02;48.98
11888;BME280;6003;42.756;23.130;2023-07-20T11:06:31;160732.41;;;32.06;44.98
11888;BME280;6003;42.756;23.130;2023-07-20T11:09:05;160765.91;;;32.19;47.42
11888;BME280;6003;42.756;23.130;2023-07-20T11:11:35;160800.81;;;32.32;48.29
11888;BME280;6003;42.756;23.130;2023-07-20T11:14:04;160755.19;;;32.15;47.93
11888;BME280;6003;42.756;23.130;2023-07-20T11:16:34;160800.81;;;32.32;51.85
11888;BME280;6003;42.756;23.130;2023-07-20T11:19:02;160838.41;;;32.47;48.98
11888;BME280;6003;42.756;23.130;2023-07-20T11:21:29;160873.31;;;32.60;48.66
11888;BME280;6003;42.756;23.130;2023-07-20T11:23:56;160874.66;;;32.61;45.29
11888;BME280;6003;42.756;23.130;2023-07-20T11:26:23;160900.13;;;32.70;45.86
11888;BME280;6003;42.756;23.130;2023-07-20T11:28:51;160885.34;;;32.65;45.79
11888;BME280;6003;42.756;23.130;2023-07-20T11:31:18;160837.09;;;32.46;45.98
11888;BME280;6003;42.756;23.130;2023-07-20T11:33:46;160768.63;;;32.20;44.66
11888;BME280;6003;42.756;23.130;2023-07-20T11:36:13;160780.66;;;32.25;47.88
11888;BME280;6003;42.756;23.130;2023-07-20T11:38:41;160776.66;;;32.23;47.32
11888;BME280;6003;42.756;23.130;2023-07-20T11:41:09;160806.19;;;32.34;47.71
11888;BME280;6003;42.756;23.130;2023-07-20T11:43:37;160822.28;;;32.41;47.56
11888;BME280;6003;42.756;23.130;2023-07-20T11:46:06;160787.38;;;32.27;43.90
11888;BME280;6003;42.756;23.130;2023-07-20T11:48:33;160778.00;;;32.24;44.21
11888;BME280;6003;42.756;23.130;2023-07-20T11:51:00;160791.44;;;32.29;44.78
11888;BME280;6003;42.756;23.130;2023-07-20T11:53:27;160803.47;;;32.33;42.50
11888;BME280;6003;42.756;23.130;2023-07-20T11:55:54;160800.81;;;32.32;41.14
11888;BME280;6003;42.756;23.130;2023-07-20T11:58:21;160798.13;;;32.31;43.02
11888;BME280;6003;42.756;23.130;2023-07-20T12:00:47;160795.44;;;32.30;42.69
11888;BME280;6003;42.756;23.130;2023-07-20T12:03:15;160778.00;;;32.24;41.83
11888;BME280;6003;42.756;23.130;2023-07-20T12:05:42;160755.19;;;32.15;40.01
11888;BME280;6003;42.756;23.130;2023-07-20T12:08:10;160731.06;;;32.06;38.73
11888;BME280;6003;42.756;23.130;2023-07-20T12:10:39;160744.44;;;32.11;39.85
11888;BME280;6003;42.756;23.130;2023-07-20T12:13:10;160736.41;;;32.08;41.54
11888;BME280;6003;42.756;23.130;2023-07-20T12:15:37;160716.31;;;32.00;40.23
11888;BME280;6003;42.756;23.130;2023-07-20T12:18:05;160677.38;;;31.85;40.51
11888;BME280;6003;42.756;23.130;2023-07-20T12:20:34;160670.66;;;31.83;42.51
11888;BME280;6003;42.756;23.130;2023-07-20T12:23:03;160694.84;;;31.92;43.85
11888;BME280;6003;42.756;23.130;2023-07-20T12:25:40;160651.88;;;31.76;41.05
11888;BME280;6003;42.756;23.130;2023-07-20T12:28:09;160653.19;;;31.76;42.77
11888;BME280;6003;42.756;23.130;2023-07-20T12:30:36;160615.66;;;31.62;41.75
11888;BME280;6003;42.756;23.130;2023-07-20T12:33:03;160596.91;;;31.55;43.45
11888;BME280;6003;42.756;23.130;2023-07-20T12:35:30;160626.41;;;31.66;43.35
11888;BME280;6003;42.756;23.130;2023-07-20T12:37:59;160630.41;;;31.67;43.29
11888;BME280;6003;42.756;23.130;2023-07-20T12:40:26;160607.63;;;31.59;44.41
11888;BME280;6003;42.756;23.130;2023-07-20T12:42:53;160639.84;;;31.71;43.11
11888;BME280;6003;42.756;23.130;2023-07-20T12:45:19;160580.84;;;31.49;43.50
11888;BME280;6003;42.756;23.130;2023-07-20T12:47:47;160563.41;;;31.42;42.35
11888;BME280;6003;42.756;23.130;2023-07-20T12:50:14;160559.38;;;31.40;45.02
11888;BME280;6003;42.756;23.130;2023-07-20T12:52:41;160578.13;;;31.47;43.94
11888;BME280;6003;42.756;23.130;2023-07-20T12:55:09;160572.78;;;31.45;42.58
11888;BME280;6003;42.756;23.130;2023-07-20T12:57:37;160570.06;;;31.44;43.93